Time;durP1;ratioP1;P1;durP2;ratioP2;P2;SDS_P1;SDS_P2;PMS_P1;PMS_P2;Temp;Humidity;BMP_temperature;BMP_pressure;BME280_temperature;BME280_humidity;BME280_pressure;Samples;Min_cycle;Max_cycle;Signal;HPM_P1;HPM_P2
2021/06/02 00:00:12;;;;;;;6.60;5.07;;;;;;;20.92;43.02;99841.53;4976173;28;20535;-84
2021/06/02 00:02:45;;;;;;;7.07;5.03;;;;;;;20.90;43.34;99843.50;5008250;28;20060;-84
2021/06/02 00:05:20;;;;;;;6.57;4.82;;;;;;;20.89;43.48;99841.00;4937824;29;20054;-84
2021/06/02 00:07:48;;;;;;;7.38;5.15;;;;;;;20.90;43.51;99848.84;4955613;29;20608;-84
2021/06/02 00:10:17;;;;;;;7.93;5.07;;;;;;;20.89;43.78;99844.50;4955802;29;20055;-84
2021/06/02 00:12:52;;;;;;;8.13;4.72;;;;;;;20.85;43.65;99848.44;4955582;29;20489;-84
2021/06/02 00:15:20;;;;;;;8.02;4.93;;;;;;;20.86;43.62;99836.75;4952897;29;20062;-83
2021/06/02 00:17:49;;;;;;;9.10;5.05;;;;;;;20.83;43.32;99839.75;4920774;29;20425;-84
2021/06/02 00:20:17;;;;;;;6.57;4.93;;;;;;;20.81;43.80;99833.69;4920483;29;20051;-84
2021/06/02 00:22:44;;;;;;;5.80;5.22;;;;;;;20.79;43.77;99838.38;4931053;28;20058;-84
2021/06/02 00:25:12;;;;;;;6.03;4.60;;;;;;;20.77;43.48;99840.34;5009714;28;20058;-84
2021/06/02 00:27:41;;;;;;;5.82;4.70;;;;;;;20.75;43.67;99845.00;5015604;28;20054;-83
2021/06/02 00:30:10;;;;;;;6.47;4.70;;;;;;;20.72;43.96;99838.13;5014299;28;20060;-84
2021/06/02 00:32:41;;;;;;;5.55;4.35;;;;;;;20.69;44.03;99830.41;5014498;28;20068;-84
2021/06/02 00:35:10;;;;;;;7.68;4.78;;;;;;;20.67;43.69;99838.56;5013435;28;20053;-83
2021/06/02 00:37:39;;;;;;;6.82;4.53;;;;;;;20.63;43.52;99831.84;4997765;28;20054;-84
2021/06/02 00:40:08;;;;;;;9.57;4.72;;;;;;;20.60;43.74;99834.00;4995697;28;20145;-81
2021/06/02 00:42:35;;;;;;;5.95;4.40;;;;;;;20.57;43.52;99821.78;4994824;28;20141;-82
2021/06/02 00:45:05;;;;;;;7.25;4.43;;;;;;;20.52;43.95;99822.22;4995963;28;20494;-82
2021/06/02 00:47:36;;;;;;;5.07;4.50;;;;;;;20.47;44.08;99824.50;5013542;28;20066;-82
2021/06/02 00:50:05;;;;;;;6.32;4.40;;;;;;;20.43;44.30;99815.09;5014083;28;20050;-82
2021/06/02 00:52:34;;;;;;;8.48;4.05;;;;;;;20.38;43.71;99812.91;5013674;28;20054;-82
2021/06/02 00:55:00;;;;;;;7.68;3.80;;;;;;;20.35;43.43;99801.66;5013822;28;20140;-82
2021/06/02 00:57:30;;;;;;;5.22;3.67;;;;;;;20.33;43.54;99814.34;4995461;28;20060;-82
2021/06/02 01:00:12;;;;;;;4.32;3.70;;;;;;;20.30;43.19;99807.47;4994074;28;20054;-82
2021/06/02 01:02:45;;;;;;;4.15;3.53;;;;;;;20.27;43.28;99821.09;4994448;28;20485;-82
2021/06/02 01:05:13;;;;;;;3.92;3.53;;;;;;;20.24;42.97;99806.22;4994079;28;20065;-82
2021/06/02 01:07:50;;;;;;;5.10;3.42;;;;;;;20.20;43.05;99820.00;4974920;28;20467;-82
2021/06/02 01:10:19;;;;;;;4.88;3.00;;;;;;;20.22;43.16;99820.72;4973640;28;20051;-82
2021/06/02 01:12:50;;;;;;;5.30;3.20;;;;;;;20.17;43.15;99815.81;4974532;28;20059;-82
2021/06/02 01:15:19;;;;;;;3.97;3.13;;;;;;;20.18;43.01;99822.84;4975646;28;20047;-82
2021/06/02 01:17:54;;;;;;;5.88;3.30;;;;;;;20.13;43.20;99809.94;5011916;28;20050;-82
2021/06/02 01:20:23;;;;;;;5.45;3.25;;;;;;;20.16;42.64;99811.47;5015204;28;20543;-82
2021/06/02 01:22:53;;;;;;;4.35;2.97;;;;;;;20.13;42.80;99799.25;5013269;28;20050;-82
2021/06/02 01:25:23;;;;;;;5.30;3.45;;;;;;;20.14;42.56;99811.59;5012477;28;20050;-81
2021/06/02 01:27:51;;;;;;;9.77;3.55;;;;;;;20.11;43.02;99811.91;4993639;28;20054;-82
2021/06/02 01:30:21;;;;;;;4.80;3.20;;;;;;;20.07;42.75;99807.84;4993535;28;20058;-82
2021/06/02 01:33:01;;;;;;;5.53;2.97;;;;;;;20.03;42.75;99809.13;4993801;28;20061;-81
2021/06/02 01:36:07;;;;;;;5.05;3.38;;;;;;;19.99;42.46;99808.59;4994574;28;20077;-82
2021/06/02 01:38:59;;;;;;;4.25;3.00;;;;;;;19.98;42.46;99803.34;5011128;28;20059;-82
2021/06/02 01:41:53;;;;;;;3.40;2.75;;;;;;;19.95;42.37;99807.16;5045966;28;20072;-82
2021/06/02 01:44:41;;;;;;;3.95;2.83;;;;;;;19.92;42.43;99807.44;4993224;28;20052;-82
2021/06/02 01:47:45;;;;;;;3.25;2.58;;;;;;;19.88;42.34;99814.06;4998322;28;20064;-82
2021/06/02 01:50:31;;;;;;;3.55;2.45;;;;;;;19.86;42.17;99814.25;4993490;28;20058;-82
2021/06/02 01:53:35;;;;;;;5.47;2.80;;;;;;;19.80;42.22;99809.47;4993523;28;20054;-82
2021/06/02 01:56:30;;;;;;;5.82;2.53;;;;;;;19.75;42.00;99803.75;4997974;28;20041;-82
2021/06/02 01:59:33;;;;;;;4.10;2.88;;;;;;;19.72;41.92;99812.88;5013081;28;20433;-82
2021/06/02 02:01:59;;;;;;;4.85;2.75;;;;;;;19.74;41.97;99804.72;5013109;28;20084;-82
2021/06/02 02:05:05;;;;;;;3.17;2.55;;;;;;;19.65;42.06;99796.59;5012695;28;20049;-82
2021/06/02 02:07:53;;;;;;;3.53;2.45;;;;;;;19.65;41.86;99798.44;5027488;28;20054;-82
2021/06/02 02:10:45;;;;;;;5.25;2.50;;;;;;;19.64;42.00;99799.41;4992488;28;20069;-82
2021/06/02 02:13:43;;;;;;;2.63;2.38;;;;;;;19.56;42.12;99797.50;5025436;28;20092;-82
2021/06/02 02:16:40;;;;;;;3.80;2.40;;;;;;;19.54;42.15;99796.78;5025736;28;20407;-82
2021/06/02 02:19:12;;;;;;;2.50;2.25;;;;;;;19.55;42.04;99797.63;5025700;28;20054;-82
2021/06/02 02:21:57;;;;;;;3.63;2.40;;;;;;;19.50;41.82;99801.56;5025301;28;20046;-82
2021/06/02 02:24:33;;;;;;;3.22;2.30;;;;;;;19.49;42.03;99796.38;5025577;28;20437;-82
2021/06/02 02:27:12;;;;;;;3.65;2.20;;;;;;;19.46;41.86;99799.31;5026277;28;20481;-82
2021/06/02 02:29:58;;;;;;;3.78;2.53;;;;;;;19.42;42.27;99795.25;5025773;28;20402;-82
2021/06/02 02:33:04;;;;;;;5.60;2.53;;;;;;;19.37;41.85;99793.84;5025521;28;20050;-82
2021/06/02 02:36:03;;;;;;;3.67;2.50;;;;;;;19.35;42.04;99790.50;4992273;28;20076;-82
2021/06/02 02:38:48;;;;;;;5.40;2.47;;;;;;;19.32;41.93;99785.44;5012207;28;20060;-82
2021/06/02 02:41:37;;;;;;;3.08;2.30;;;;;;;19.32;42.44;99781.97;5012651;28;20406;-82
2021/06/02 02:44:05;;;;;;;5.85;2.50;;;;;;;19.34;42.09;99779.97;5012239;28;20056;-81
2021/06/02 02:46:43;;;;;;;4.82;2.30;;;;;;;19.30;42.04;99781.25;5003700;28;20058;-82
2021/06/02 02:49:29;;;;;;;3.05;2.17;;;;;;;19.26;42.25;99780.69;4992657;28;20051;-82
2021/06/02 02:52:14;;;;;;;3.05;2.20;;;;;;;19.25;42.12;99779.84;4992972;28;20562;-82
2021/06/02 02:54:51;;;;;;;2.35;1.95;;;;;;;19.26;42.41;99781.53;4993402;28;20051;-82
2021/06/02 02:57:44;;;;;;;3.08;2.22;;;;;;;19.21;42.38;99785.63;5005769;28;20478;-81
2021/06/02 03:00:28;;;;;;;2.58;2.20;;;;;;;19.20;42.35;99789.25;4973213;28;20055;-82
2021/06/02 03:03:11;;;;;;;2.40;2.17;;;;;;;19.20;42.13;99783.94;4973345;28;20507;-81
2021/06/02 03:05:43;;;;;;;;;;;;;;;19.18;41.51;99783.25;5011811;28;20054;-82
2021/06/02 03:08:18;;;;;;;3.38;2.25;;;;;;;19.19;41.67;99782.25;5012499;28;19921;-82
2021/06/02 03:11:15;;;;;;;4.40;2.07;;;;;;;19.06;41.91;99775.38;5013543;28;20053;-81
2021/06/02 03:14:01;;;;;;;2.50;2.10;;;;;;;19.02;42.14;99780.13;5011292;28;20299;-82
2021/06/02 03:16:37;;;;;;;3.42;2.42;;;;;;;18.97;42.07;99782.41;5044837;28;20058;-82
2021/06/02 03:19:13;;;;;;;3.17;2.45;;;;;;;18.95;42.24;99780.84;5013115;28;20229;-82
2021/06/02 03:22:05;;;;;;;3.28;2.50;;;;;;;18.89;42.41;99779.59;5011869;28;20084;-82
2021/06/02 03:24:58;;;;;;;3.95;2.33;;;;;;;18.83;43.09;99797.00;4994825;28;20043;-81
2021/06/02 03:30:36;;;;;;;6.30;2.58;;;;;;;18.77;42.47;99786.91;4993413;28;20054;-81
2021/06/02 03:33:07;;;;;;;2.55;2.20;;;;;;;18.79;42.43;99789.41;4993244;28;20399;-81
2021/06/02 03:36:00;;;;;;;4.63;2.70;;;;;;;18.72;42.24;99787.31;5013149;28;20129;-81
2021/06/02 03:38:52;;;;;;;4.70;2.17;;;;;;;18.70;42.35;99777.78;5015548;28;20064;-81
2021/06/02 03:41:57;;;;;;;2.17;2.00;;;;;;;18.68;42.34;99777.91;5015454;28;20414;-81
2021/06/02 03:44:47;;;;;;;5.32;2.03;;;;;;;18.68;42.54;99777.06;4994162;28;20513;-81
2021/06/02 03:47:36;;;;;;;2.40;2.17;;;;;;;18.65;42.63;99780.84;4984043;28;20058;-81
2021/06/02 03:50:13;;;;;;;5.03;2.40;;;;;;;18.65;42.55;99780.84;4995857;28;20461;-82
2021/06/02 03:52:49;;;;;;;3.20;2.20;;;;;;;18.63;42.67;99782.81;4995422;28;20056;-81
2021/06/02 03:55:32;;;;;;;2.95;1.92;;;;;;;18.61;42.72;99784.75;5010406;28;20054;-82
2021/06/02 03:58:53;;;;;;;2.20;1.90;;;;;;;18.59;42.35;99789.41;5015000;28;20050;-82
2021/06/02 04:01:43;;;;;;;5.65;2.10;;;;;;;18.61;42.99;99782.94;4958954;28;20061;-82
2021/06/02 04:04:34;;;;;;;4.47;2.05;;;;;;;18.61;42.80;99788.28;4953425;29;20514;-82
2021/06/02 04:07:05;;;;;;;5.68;2.13;;;;;;;18.66;42.67;99785.22;4955676;29;20055;-81
2021/06/02 04:09:53;;;;;;;5.15;1.98;;;;;;;18.67;42.51;99786.03;4939639;29;20051;-82
2021/06/02 04:12:58;;;;;;;6.40;2.00;;;;;;;18.70;42.39;99778.63;4955349;29;20043;-82
2021/06/02 04:15:37;;;;;;;2.75;1.80;;;;;;;18.77;42.70;99768.22;4923175;29;20048;-82
2021/06/02 04:18:07;;;;;;;2.75;2.10;;;;;;;18.83;42.45;99770.31;4925793;28;20082;-82
2021/06/02 04:20:37;;;;;;;5.45;2.20;;;;;;;18.86;42.49;99764.72;4991587;28;20054;-82
2021/06/02 04:23:06;;;;;;;4.30;2.05;;;;;;;18.89;42.72;99775.06;4991383;28;20434;-82
2021/06/02 04:25:33;;;;;;;2.67;2.03;;;;;;;18.93;42.89;99770.31;5023656;28;20049;-82
2021/06/02 04:28:02;;;;;;;2.55;2.25;;;;;;;18.96;42.90;99769.19;5015205;28;20049;-82
2021/06/02 04:30:33;;;;;;;5.50;2.40;;;;;;;18.98;43.18;99772.56;5014007;28;20140;-82
2021/06/02 04:33:03;;;;;;;2.42;2.22;;;;;;;19.00;43.54;99770.59;5014115;28;20042;-83
2021/06/02 04:35:30;;;;;;;3.13;2.40;;;;;;;19.04;43.54;99771.16;5014786;28;20050;-82
2021/06/02 04:37:57;;;;;;;4.50;2.70;;;;;;;19.08;43.21;99770.75;5013919;28;20046;-84
2021/06/02 04:40:24;;;;;;;4.93;2.45;;;;;;;19.13;43.89;99772.97;5014405;28;20486;-83
2021/06/02 04:42:51;;;;;;;3.28;2.25;;;;;;;19.18;43.55;99775.22;5014224;28;20056;-83
2021/06/02 04:45:24;;;;;;;3.72;2.00;;;;;;;19.22;43.97;99773.97;4998932;28;20145;-87
2021/06/02 04:47:51;;;;;;;6.30;2.03;;;;;;;19.31;43.35;99777.59;4994329;28;20056;-87
2021/06/02 04:50:27;;;;;;;3.40;2.15;;;;;;;19.35;43.25;99779.84;4996411;28;20050;-87
2021/06/02 04:53:22;;;;;;;3.50;2.53;;;;;;;19.42;43.33;99779.25;4994237;28;20054;-83
2021/06/02 04:56:07;;;;;;;2.17;1.88;;;;;;;19.53;43.42;99768.41;5010895;28;20418;-83
2021/06/02 04:58:56;;;;;;;3.78;2.22;;;;;;;19.57;43.06;99775.13;5046496;28;20061;-82
2021/06/02 05:02:07;;;;;;;8.43;2.40;;;;;;;19.64;42.99;99778.06;5013652;28;20487;-82
2021/06/02 05:05:12;;;;;;;3.20;2.05;;;;;;;19.71;42.90;99772.97;5038594;28;20056;-81
2021/06/02 05:08:18;;;;;;;2.78;2.08;;;;;;;19.79;43.22;99775.75;4994310;28;20056;-84
2021/06/02 05:11:06;;;;;;;4.75;2.45;;;;;;;19.88;43.10;99782.88;4991177;28;20047;-82
2021/06/02 05:13:52;;;;;;;4.22;2.13;;;;;;;19.93;43.14;99785.94;5026517;28;20060;-82
2021/06/02 05:16:43;;;;;;;2.80;1.88;;;;;;;19.99;43.33;99786.34;4990678;28;20055;-82
2021/06/02 05:23:08;;;;;;;4.55;2.10;;;;;;;20.08;42.80;99790.84;4975773;28;20050;-82
2021/06/02 05:26:13;;;;;;;2.45;2.10;;;;;;;20.12;42.56;99778.88;4935112;29;20062;-82
2021/06/02 05:29:03;;;;;;;2.30;2.10;;;;;;;20.18;42.47;99780.06;4989835;28;20070;-82
2021/06/02 05:32:04;;;;;;;3.97;2.17;;;;;;;20.12;42.96;99786.88;4974323;28;20051;-81
2021/06/02 05:34:53;;;;;;;5.10;2.33;;;;;;;20.16;42.87;99782.91;4980115;28;20049;-82
2021/06/02 05:37:45;;;;;;;3.08;2.15;;;;;;;20.16;43.06;99790.94;4994400;28;20392;-82
2021/06/02 05:40:45;;;;;;;3.30;2.08;;;;;;;20.16;42.94;99792.75;4993694;28;20055;-82
2021/06/02 05:43:43;;;;;;;2.25;2.05;;;;;;;20.21;43.05;99789.63;4993783;28;20061;-86
2021/06/02 05:46:34;;;;;;;2.63;2.00;;;;;;;20.25;43.37;99793.69;5006267;28;20057;-83
2021/06/02 05:49:39;;;;;;;2.65;2.15;;;;;;;20.23;43.29;99788.50;5006576;28;20065;-83
2021/06/02 05:52:29;;;;;;;2.92;2.05;;;;;;;20.30;43.20;99780.72;5006139;28;20050;-83
2021/06/02 05:55:22;;;;;;;4.95;2.58;;;;;;;20.34;43.61;99781.25;4998355;28;20516;-83
2021/06/02 05:58:33;;;;;;;4.90;2.58;;;;;;;20.38;43.45;99786.16;5045418;28;20053;-83
2021/06/02 06:01:37;;;;;;;4.05;2.50;;;;;;;20.41;43.39;99791.19;5012588;28;20071;-83
2021/06/02 06:04:31;;;;;;;3.97;2.45;;;;;;;20.44;43.64;99792.72;5000882;28;20511;-83
2021/06/02 06:07:04;;;;;;;4.40;2.42;;;;;;;20.49;43.54;99794.94;4993760;28;20476;-83
2021/06/02 06:10:09;;;;;;;3.25;2.78;;;;;;;20.48;43.52;99801.28;4993178;28;20050;-83
2021/06/02 06:12:49;;;;;;;3.40;2.80;;;;;;;20.57;43.45;99800.38;4994098;28;20050;-83
2021/06/02 06:15:49;;;;;;;2.88;2.58;;;;;;;20.57;43.28;99803.06;5007194;28;20050;-83
2021/06/02 06:18:40;;;;;;;3.45;2.38;;;;;;;20.64;43.44;99801.44;5007783;28;20482;-83
2021/06/02 06:21:42;;;;;;;4.35;2.90;;;;;;;20.72;43.48;99797.16;5012868;28;20402;-83
2021/06/02 06:24:22;;;;;;;2.55;2.20;;;;;;;20.79;43.09;99803.59;4992002;28;20058;-83
2021/06/02 06:27:15;;;;;;;3.70;2.65;;;;;;;20.83;43.81;99794.28;4956915;28;20488;-83
2021/06/02 06:32:40;;;;;;;3.95;2.60;;;;;;;20.99;43.80;99795.41;4980734;28;20053;-83
2021/06/02 06:35:08;;;;;;;3.10;2.78;;;;;;;21.03;44.02;99786.94;4991895;28;20058;-83
2021/06/02 06:37:43;;;;;;;3.78;3.08;;;;;;;21.07;43.72;99793.66;4991878;28;20169;-83
2021/06/02 06:40:15;;;;;;;4.15;2.88;;;;;;;21.16;44.11;99797.22;4991912;28;20526;-83
2021/06/02 06:42:54;;;;;;;4.10;2.80;;;;;;;21.23;43.53;99805.47;4982934;28;20047;-83
2021/06/02 06:45:27;;;;;;;5.25;3.08;;;;;;;21.35;43.71;99798.88;4980064;28;20455;-83
2021/06/02 06:47:55;;;;;;;8.23;2.78;;;;;;;21.45;43.61;99798.78;4993206;28;20137;-83
2021/06/02 06:50:22;;;;;;;5.20;3.05;;;;;;;21.56;43.62;99794.13;4993094;28;20468;-83
2021/06/02 06:52:53;;;;;;;4.25;2.75;;;;;;;21.66;43.33;99794.03;5002404;28;20038;-83
2021/06/02 06:55:22;;;;;;;4.32;2.53;;;;;;;21.75;43.03;99790.41;5011314;28;20081;-83
2021/06/02 06:57:51;;;;;;;4.60;2.67;;;;;;;21.84;43.18;99792.16;5012371;28;20069;-83
2021/06/02 07:00:18;;;;;;;3.08;2.40;;;;;;;21.92;43.19;99788.66;5012413;28;20056;-83
2021/06/02 07:02:45;;;;;;;3.78;3.00;;;;;;;21.99;43.31;99789.69;5012593;28;20506;-83
2021/06/02 07:05:14;;;;;;;3.67;2.90;;;;;;;22.05;43.43;99790.06;5009016;28;20138;-83
2021/06/02 07:07:43;;;;;;;3.65;2.75;;;;;;;22.11;43.37;99789.41;4993012;28;20402;-83
2021/06/02 07:10:13;;;;;;;5.15;3.03;;;;;;;22.17;42.71;99788.75;4996220;28;20064;-83
2021/06/02 07:12:46;;;;;;;3.47;2.60;;;;;;;22.20;43.07;99790.28;4995767;28;20827;-83
2021/06/02 07:15:15;;;;;;;3.08;2.45;;;;;;;22.23;42.74;99792.63;4999258;28;20078;-83
2021/06/02 07:17:52;;;;;;;5.82;3.10;;;;;;;22.23;42.41;99787.25;5016063;28;20120;-83
2021/06/02 07:20:25;;;;;;;4.78;3.00;;;;;;;22.24;42.45;99792.44;5016328;28;20046;-83
2021/06/02 07:22:53;;;;;;;3.13;2.75;;;;;;;22.27;42.56;99799.31;5015921;28;20495;-83
2021/06/02 07:25:26;;;;;;;3.65;3.03;;;;;;;22.24;42.67;99797.81;5011464;28;20051;-83
2021/06/02 07:27:56;;;;;;;6.90;2.50;;;;;;;22.24;42.79;99797.00;4997082;28;20054;-83
2021/06/02 07:30:25;;;;;;;3.00;2.67;;;;;;;22.22;43.16;99794.47;4995958;28;20064;-83
2021/06/02 07:32:55;;;;;;;4.80;2.80;;;;;;;22.21;42.98;99792.78;4995896;28;20082;-83
2021/06/02 07:35:24;;;;;;;3.10;2.60;;;;;;;22.21;42.76;99798.13;4996890;28;20125;-83
2021/06/02 07:37:53;;;;;;;4.95;2.83;;;;;;;22.19;42.97;99794.78;5015429;28;20137;-83
2021/06/02 07:40:20;;;;;;;5.80;2.80;;;;;;;22.21;43.14;99803.50;5016092;28;20074;-83
2021/06/02 07:42:47;;;;;;;4.97;3.08;;;;;;;22.22;43.04;99797.16;5015267;28;20056;-83
2021/06/02 07:45:17;;;;;;;4.60;2.78;;;;;;;22.24;43.19;99797.81;4999236;28;20054;-83
2021/06/02 07:47:44;;;;;;;4.15;2.90;;;;;;;22.28;43.54;99792.13;4995824;28;20073;-83
2021/06/02 07:50:13;;;;;;;6.82;3.40;;;;;;;22.31;43.17;99792.63;4997222;28;20054;-83
2021/06/02 07:52:40;;;;;;;5.53;3.40;;;;;;;22.35;43.04;99791.31;4995478;28;20060;-83
2021/06/02 07:55:08;;;;;;;9.20;3.08;;;;;;;22.39;43.32;99797.19;5009679;28;20057;-83
2021/06/02 07:57:34;;;;;;;5.50;3.13;;;;;;;22.44;43.02;99794.00;4995948;28;20417;-83
2021/06/02 08:00:03;;;;;;;5.85;3.47;;;;;;;22.49;43.16;99799.72;4995633;28;20105;-83
2021/06/02 08:02:30;;;;;;;4.13;3.15;;;;;;;22.54;43.72;99796.56;4995215;28;20054;-83
2021/06/02 08:04:57;;;;;;;4.28;2.97;;;;;;;22.59;43.22;99795.09;5008024;28;20064;-83
2021/06/02 08:07:39;;;;;;;5.13;3.25;;;;;;;22.63;42.81;99798.28;5011751;28;20053;-83
2021/06/02 08:10:06;;;;;;;4.85;2.80;;;;;;;22.66;43.19;99797.94;5014611;28;20061;-83
2021/06/02 08:12:33;;;;;;;3.67;2.83;;;;;;;22.71;43.24;99802.78;5014595;28;20068;-83
2021/06/02 08:15:00;;;;;;;3.17;2.47;;;;;;;22.77;43.64;99805.66;5001270;28;20050;-83
2021/06/02 08:17:27;;;;;;;6.32;3.35;;;;;;;22.86;43.42;99805.66;4995267;28;20057;-83
2021/06/02 08:19:55;;;;;;;4.47;3.30;;;;;;;22.95;43.12;99806.50;4994763;28;20058;-83
2021/06/02 08:22:21;;;;;;;4.55;3.00;;;;;;;23.06;42.94;99799.97;4995247;28;20475;-83
2021/06/02 08:24:48;;;;;;;4.38;3.22;;;;;;;23.15;43.82;99815.91;5006479;28;20054;-83
2021/06/02 08:27:15;;;;;;;5.35;3.28;;;;;;;23.24;43.55;99802.47;5014602;28;20505;-83
2021/06/02 08:29:42;;;;;;;5.07;3.70;;;;;;;23.33;42.94;99804.16;5014694;28;20064;-83
2021/06/02 08:32:09;;;;;;;5.15;3.03;;;;;;;23.40;42.98;99807.03;5014552;28;20057;-83
2021/06/02 08:34:38;;;;;;;4.03;3.45;;;;;;;23.48;42.82;99809.69;5014224;28;20064;-83
2021/06/02 08:37:05;;;;;;;6.88;3.28;;;;;;;23.58;43.43;99808.66;5013855;28;20064;-83
2021/06/02 08:39:33;;;;;;;4.90;3.35;;;;;;;23.66;43.26;99811.34;5014148;28;20054;-83
2021/06/02 08:42:13;;;;;;;5.32;3.10;;;;;;;23.75;42.80;99804.06;5013530;28;20045;-83
2021/06/02 08:44:40;;;;;;;3.22;2.88;;;;;;;23.83;43.49;99806.72;5003131;28;20058;-83
2021/06/02 08:47:07;;;;;;;6.78;3.55;;;;;;;23.91;43.87;99811.22;4994460;28;20046;-83
2021/06/02 08:49:34;;;;;;;4.97;3.40;;;;;;;23.99;44.05;99803.13;4994684;28;20503;-83
2021/06/02 08:52:08;;;;;;;3.47;3.08;;;;;;;24.05;43.62;99802.44;4994703;28;20141;-84
2021/06/02 08:54:35;;;;;;;5.55;3.33;;;;;;;24.18;43.35;99803.78;5002515;28;20140;-83
2021/06/02 08:57:08;;;;;;;4.10;3.25;;;;;;;24.24;43.44;99807.59;5013535;28;20054;-83
2021/06/02 08:59:35;;;;;;;;;;;;;;;24.32;43.22;99810.22;5014155;28;20046;-83
2021/06/02 09:02:04;;;;;;;7.70;3.42;;;;;;;24.47;42.90;99810.31;5013058;28;19928;-83
2021/06/02 09:04:33;;;;;;;6.70;3.20;;;;;;;24.56;43.63;99803.88;5007904;28;20466;-83
2021/06/02 09:07:06;;;;;;;5.20;3.53;;;;;;;24.62;42.83;99805.00;4993815;28;20058;-83
2021/06/02 09:09:36;;;;;;;5.43;2.95;;;;;;;24.70;42.70;99807.66;4993938;28;20061;-83
2021/06/02 09:12:12;;;;;;;4.95;3.28;;;;;;;24.78;42.95;99809.44;4994026;28;20050;-83
2021/06/02 09:15:00;;;;;;;;;;;;;;;24.87;42.64;99809.41;5004942;28;20045;-83
2021/06/02 09:17:27;;;;;;;5.10;2.95;;;;;;;25.00;42.04;99806.94;5013372;28;19921;-83
2021/06/02 09:19:55;;;;;;;5.68;3.00;;;;;;;25.08;42.58;99809.56;5013505;28;20061;-83
2021/06/02 09:22:23;;;;;;;3.55;3.05;;;;;;;25.17;42.01;99806.78;5013720;28;20410;-83
2021/06/02 09:24:57;;;;;;;9.43;3.40;;;;;;;25.22;41.86;99812.47;5011990;28;20399;-83
2021/06/02 09:27:49;;;;;;;5.93;3.05;;;;;;;25.30;42.60;99812.41;5013311;28;20046;-83
2021/06/02 09:30:20;;;;;;;3.55;3.20;;;;;;;25.45;42.04;99806.22;5012412;28;20054;-83
2021/06/02 09:32:53;;;;;;;5.25;2.72;;;;;;;25.53;42.08;99808.78;5012804;28;20052;-83
2021/06/02 09:35:20;;;;;;;5.20;3.23;;;;;;;25.61;42.17;99800.66;4999133;28;20093;-83
2021/06/02 09:37:52;;;;;;;4.28;3.40;;;;;;;25.68;41.76;99808.00;4998241;28;20129;-83
2021/06/02 09:40:34;;;;;;;3.83;2.80;;;;;;;25.76;42.49;99811.44;5013063;28;20089;-83
2021/06/02 09:43:02;;;;;;;3.78;3.20;;;;;;;25.87;41.58;99809.31;5013318;28;20453;-83
2021/06/02 09:45:29;;;;;;;6.32;2.90;;;;;;;25.96;41.54;99808.19;4998081;28;20084;-83
2021/06/02 09:48:00;;;;;;;6.75;3.38;;;;;;;26.03;40.64;99810.97;4993632;28;20042;-83
2021/06/02 09:50:39;;;;;;;4.65;3.50;;;;;;;26.13;41.67;99813.38;4993464;28;20137;-83
2021/06/02 09:53:09;;;;;;;5.30;3.25;;;;;;;26.20;41.16;99806.16;4993539;28;20168;-83
2021/06/02 09:55:41;;;;;;;5.43;3.25;;;;;;;26.28;41.44;99806.09;5008698;28;20058;-83
2021/06/02 09:58:14;;;;;;;6.43;3.60;;;;;;;26.35;40.57;99806.16;5013051;28;20072;-84
2021/06/02 10:01:11;;;;;;;4.95;3.50;;;;;;;26.43;39.95;99807.94;5012803;28;20054;-83
2021/06/02 10:03:42;;;;;;;4.70;3.55;;;;;;;26.51;40.19;99807.78;5013494;28;20046;-83
2021/06/02 10:06:19;;;;;;;3.53;3.20;;;;;;;26.55;40.94;99802.88;4993363;28;20380;-83
2021/06/02 10:08:55;;;;;;;5.03;3.60;;;;;;;26.65;41.17;99800.66;4992973;28;20054;-83
2021/06/02 10:11:29;;;;;;;3.42;3.13;;;;;;;26.76;41.39;99802.03;4993085;28;20056;-83
2021/06/02 10:14:13;;;;;;;4.65;3.28;;;;;;;26.86;40.69;99804.41;4996715;28;20120;-84
2021/06/02 10:16:45;;;;;;;3.40;2.78;;;;;;;26.93;40.94;99802.59;5012841;28;20062;-83
2021/06/02 10:19:12;;;;;;;4.53;3.25;;;;;;;27.02;40.86;99802.50;5013507;28;20144;-84
2021/06/02 10:21:46;;;;;;;5.60;3.47;;;;;;;27.09;40.14;99800.66;5011826;28;20056;-85
2021/06/02 10:24:15;;;;;;;7.88;2.80;;;;;;;27.19;39.79;99803.88;5011969;28;20050;-82
2021/06/02 10:26:42;;;;;;;3.83;3.30;;;;;;;27.28;39.42;99811.84;5009170;28;20050;-82
2021/06/02 10:29:09;;;;;;;4.55;3.05;;;;;;;27.37;39.52;99802.56;5012147;28;20076;-82
2021/06/02 10:31:37;;;;;;;6.38;3.22;;;;;;;27.45;39.00;99805.09;5011885;28;20057;-82
2021/06/02 10:34:04;;;;;;;4.10;3.10;;;;;;;27.56;38.65;99803.72;5010998;28;20069;-82
2021/06/02 10:36:33;;;;;;;3.83;3.13;;;;;;;27.67;39.81;99805.06;5010274;28;20064;-82
2021/06/02 10:39:07;;;;;;;6.75;2.95;;;;;;;27.81;39.99;99807.84;5013189;28;20054;-83
2021/06/02 10:41:40;;;;;;;4.30;2.88;;;;;;;27.99;38.46;99812.69;5012322;28;20049;-82
2021/06/02 10:44:10;;;;;;;5.65;2.75;;;;;;;28.22;38.95;99817.78;5016644;28;20445;-82
2021/06/02 10:46:46;;;;;;;4.00;2.83;;;;;;;28.54;38.93;99819.13;5014242;28;20060;-82
2021/06/02 10:49:27;;;;;;;4.25;2.60;;;;;;;28.96;39.04;99798.19;4997010;28;20059;-82
2021/06/02 10:51:56;;;;;;;4.82;3.30;;;;;;;29.50;38.64;99800.84;4996660;28;20064;-82
2021/06/02 10:54:50;;;;;;;5.28;3.10;;;;;;;30.10;37.80;99798.16;4996476;28;20050;-82
2021/06/02 10:57:17;;;;;;;4.10;2.50;;;;;;;30.67;37.71;99792.84;4992775;28;20050;-83
2021/06/02 10:59:46;;;;;;;2.88;2.47;;;;;;;31.13;35.79;99800.03;4996992;28;20130;-82
2021/06/02 11:02:16;;;;;;;5.55;2.90;;;;;;;31.44;34.22;99801.84;4996504;28;20059;-82
2021/06/02 11:04:55;;;;;;;4.60;3.08;;;;;;;31.59;33.96;99793.31;4997682;28;20392;-82
2021/06/02 11:07:27;;;;;;;2.97;2.72;;;;;;;31.70;33.36;99799.06;5001749;28;20049;-82
2021/06/02 11:10:11;;;;;;;3.67;2.90;;;;;;;31.64;32.77;99794.53;5015868;28;20058;-82
2021/06/02 11:12:52;;;;;;;7.05;2.80;;;;;;;31.54;33.49;99795.88;5015987;28;20060;-82
2021/06/02 11:15:34;;;;;;;6.22;2.83;;;;;;;31.41;34.00;99794.16;5015986;28;20064;-82
2021/06/02 11:18:10;;;;;;;4.82;3.25;;;;;;;31.40;32.54;99794.38;5049201;28;20049;-82
2021/06/02 11:20:49;;;;;;;5.35;3.55;;;;;;;31.48;33.67;99796.81;5015727;28;20054;-83
2021/06/02 11:23:20;;;;;;;3.75;3.10;;;;;;;31.66;33.07;99803.31;4977315;28;20406;-83
2021/06/02 11:25:49;;;;;;;5.47;3.17;;;;;;;31.85;32.76;99791.34;4976956;28;20518;-83
2021/06/02 11:28:47;;;;;;;5.45;2.83;;;;;;;32.07;32.96;99798.25;4992684;28;20457;-82
2021/06/02 11:31:24;;;;;;;4.15;3.13;;;;;;;32.37;33.16;99803.69;4976880;28;20043;-82
2021/06/02 11:33:52;;;;;;;4.75;3.08;;;;;;;32.61;32.41;99802.94;4976144;28;20051;-82
2021/06/02 11:36:19;;;;;;;3.15;2.95;;;;;;;32.75;32.32;99798.13;5008945;28;20158;-83
2021/06/02 11:38:46;;;;;;;5.03;3.10;;;;;;;32.91;31.30;99796.59;4992401;28;20054;-82
2021/06/02 11:41:14;;;;;;;4.97;3.60;;;;;;;33.08;31.18;99799.47;4995712;28;20048;-82
2021/06/02 11:43:59;;;;;;;4.63;3.10;;;;;;;33.28;31.86;99795.59;4995700;28;20108;-83
2021/06/02 11:46:47;;;;;;;6.18;3.60;;;;;;;33.44;30.50;99788.56;4995652;28;20066;-82
2021/06/02 11:49:34;;;;;;;4.40;3.17;;;;;;;33.59;32.16;99790.84;4996503;28;20058;-83
2021/06/02 11:52:08;;;;;;;3.40;3.10;;;;;;;33.78;30.19;99787.94;4995527;28;20109;-83
2021/06/02 11:54:58;;;;;;;4.18;2.70;;;;;;;33.89;30.94;99799.88;5003508;28;20048;-83
2021/06/02 11:57:33;;;;;;;7.07;3.00;;;;;;;34.01;30.56;99795.22;5015183;28;20691;-83
2021/06/02 12:00:02;;;;;;;4.55;3.25;;;;;;;34.06;29.56;99792.59;5015019;28;20057;-84
2021/06/02 12:02:30;;;;;;;4.80;3.40;;;;;;;34.08;30.32;99789.66;5015096;28;20046;-83
2021/06/02 12:05:17;;;;;;;4.07;3.05;;;;;;;34.10;30.67;99787.50;5014804;28;20053;-83
2021/06/02 12:07:48;;;;;;;5.78;3.22;;;;;;;34.23;29.99;99788.28;5015041;28;20482;-83
2021/06/02 12:10:16;;;;;;;5.28;3.15;;;;;;;34.31;30.09;99788.72;5013559;28;20471;-82
2021/06/02 12:12:47;;;;;;;4.18;3.42;;;;;;;34.35;29.37;99790.97;5014377;28;20141;-83
2021/06/02 12:15:17;;;;;;;5.90;3.40;;;;;;;34.38;29.14;99790.47;4996123;28;20057;-82
2021/06/02 12:17:44;;;;;;;4.05;3.42;;;;;;;34.42;29.54;99787.00;4994982;28;20054;-83
2021/06/02 12:20:18;;;;;;;5.30;3.05;;;;;;;34.48;30.16;99789.81;4995240;28;20112;-83
2021/06/02 12:22:44;;;;;;;4.38;2.92;;;;;;;34.62;29.86;99780.28;4994944;28;20061;-83
2021/06/02 12:25:20;;;;;;;4.75;2.95;;;;;;;34.75;29.47;99791.97;4995265;28;20514;-83
2021/06/02 12:27:49;;;;;;;5.65;3.20;;;;;;;34.98;30.26;99781.91;4996267;28;20064;-82
2021/06/02 12:30:19;;;;;;;4.18;3.20;;;;;;;35.18;29.41;99792.38;4994974;28;20058;-82